createdAt,value
2019-05-12T00:03:48.616Z,49.7
2019-05-12T00:13:51.978Z,49.7
2019-05-12T00:23:55.329Z,49.8
2019-05-12T00:34:01.403Z,49.8
2019-05-12T00:44:04.755Z,49.8
2019-05-12T00:54:09.514Z,49.8
2019-05-12T01:04:12.862Z,49.6
2019-05-12T01:14:18.811Z,49.5
2019-05-12T01:24:22.179Z,49.4
2019-05-12T01:34:27.952Z,49.3
2019-05-12T01:44:31.310Z,49
2019-05-12T01:54:34.646Z,48.7
2019-05-12T02:04:38.130Z,48.5
2019-05-12T02:14:41.485Z,48.3
2019-05-12T02:24:44.817Z,48.2
2019-05-12T02:34:48.136Z,48.1
2019-05-12T02:44:55.355Z,48
2019-05-12T02:55:02.297Z,48
2019-05-12T03:05:10.066Z,48
2019-05-12T03:15:15.458Z,48.1
2019-05-12T03:25:29.799Z,48.2
2019-05-12T03:35:51.663Z,48.2
2019-05-12T03:46:05.635Z,48
2019-05-12T03:56:09.047Z,47.9
2019-05-12T04:06:15.780Z,47.8
2019-05-12T04:16:19.229Z,47.8
2019-05-12T04:26:25.649Z,47.7
2019-05-12T04:36:29.022Z,47.6
2019-05-12T04:46:34.966Z,47.6
2019-05-12T04:56:38.367Z,47.5
2019-05-12T05:06:45.175Z,47.4
2019-05-12T05:16:48.749Z,47.2
2019-05-12T05:26:54.136Z,47.1
2019-05-12T05:37:01.778Z,46.9
2019-05-12T05:47:05.178Z,46.7
2019-05-12T05:57:08.502Z,46.6
2019-05-12T06:07:14.493Z,46.5
2019-05-12T06:17:17.898Z,46.4
2019-05-12T06:27:21.421Z,46.3
2019-05-12T06:37:24.735Z,46.3
2019-05-12T06:47:28.083Z,46.3
2019-05-12T06:57:31.433Z,46.1
2019-05-12T07:07:45.891Z,45.7
2019-05-12T07:17:50.204Z,45.8
2019-05-12T07:28:02.774Z,45.6
2019-05-12T07:38:20.735Z,45.6
2019-05-12T07:48:29.308Z,45.4
2019-05-12T07:58:33.449Z,45.3
2019-05-12T08:08:51.958Z,45.3
2019-05-12T08:19:04.214Z,45
2019-05-12T08:29:15.781Z,44.9
2019-05-12T08:39:27.735Z,45.2
2019-05-12T08:49:50.854Z,44.6
2019-05-12T09:00:08.525Z,44
2019-05-12T09:10:14.414Z,44.6
2019-05-12T09:20:17.847Z,45.2
2019-05-12T09:30:21.322Z,44.9
2019-05-12T09:40:24.873Z,44.8
2019-05-12T09:50:28.204Z,44.3
2019-05-12T10:00:37.647Z,43.8
2019-05-12T10:10:46.985Z,44.1
2019-05-12T10:20:50.602Z,44.3
2019-05-12T10:30:57.100Z,44.7
2019-05-12T10:41:00.465Z,45
2019-05-12T10:51:03.794Z,44.3
2019-05-12T11:01:08.806Z,44.8
2019-05-12T11:11:13.804Z,44.9
2019-05-12T11:21:17.159Z,44.5
2019-05-12T11:31:20.512Z,44.7
2019-05-12T11:41:28.648Z,43.6
2019-05-12T11:51:34.203Z,44
2019-05-12T12:01:45.460Z,44
2019-05-12T12:12:07.409Z,44.1
2019-05-12T12:22:11.236Z,44.1
2019-05-12T12:32:20.383Z,43.8
2019-05-12T12:42:36.410Z,44
2019-05-12T12:52:50.600Z,43.7
2019-05-12T13:02:53.927Z,44.2
2019-05-12T13:13:04.061Z,43.7
2019-05-12T13:23:07.845Z,43.4
2019-05-12T13:33:18.320Z,43.3
2019-05-12T13:43:24.005Z,43.6
2019-05-12T13:53:27.358Z,43.8
2019-05-12T14:03:30.684Z,43.8
2019-05-12T14:13:34.039Z,43.6
2019-05-12T14:23:37.447Z,43.6
2019-05-12T14:33:40.786Z,43.7
2019-05-12T14:43:48.089Z,44.3
2019-05-12T14:54:05.314Z,44.4
2019-05-12T15:04:08.626Z,44.6
2019-05-12T15:14:13.921Z,44.6
2019-05-12T15:24:19.247Z,44.4
2019-05-12T15:34:23.918Z,44.2
2019-05-12T15:44:34.563Z,44.2
2019-05-12T15:54:50.833Z,44
2019-05-12T16:04:57.338Z,44
2019-05-12T16:15:00.668Z,43.9
2019-05-12T16:25:04.578Z,44
2019-05-12T16:35:07.954Z,43.9
2019-05-12T16:45:11.296Z,43.9
2019-05-12T16:55:14.680Z,43.7
2019-05-12T17:05:20.772Z,43.7
2019-05-12T17:15:24.158Z,43.7
2019-05-12T17:25:27.474Z,43.8
2019-05-12T17:35:35.158Z,43.6
2019-05-12T17:45:38.740Z,43.6
2019-05-12T17:55:53.908Z,43.7
2019-05-12T18:05:59.644Z,43.6
2019-05-12T18:16:11.296Z,43.9
2019-05-12T18:26:25.872Z,43.9
2019-05-12T18:36:29.215Z,44
2019-05-12T18:46:45.206Z,44
2019-05-12T18:57:20.265Z,44.4
2019-05-12T19:07:40.153Z,44.6
2019-05-12T19:17:46.136Z,44.7
2019-05-12T19:28:05.562Z,44.9
2019-05-12T19:38:16.132Z,45.1
2019-05-12T19:48:27.714Z,45.3
2019-05-12T19:58:31.132Z,45.5
2019-05-12T20:08:37.204Z,45.6
2019-05-12T20:18:49.102Z,45.6
2019-05-12T20:28:55.623Z,45.7
2019-05-12T20:38:58.999Z,45.8
2019-05-12T20:49:12.102Z,45.9
2019-05-12T20:59:28.041Z,45.9
2019-05-12T21:09:31.820Z,45.9
2019-05-12T21:19:41.534Z,46
2019-05-12T21:30:12.455Z,46
2019-05-12T21:40:30.508Z,46.1
2019-05-12T21:50:38.473Z,46.2
2019-05-12T22:00:41.852Z,46.3
2019-05-12T22:10:47.561Z,46.4
2019-05-12T22:21:00.902Z,46.4
2019-05-12T22:31:10.400Z,46.5
2019-05-12T22:41:13.836Z,46.3
2019-05-12T22:51:26.776Z,46.4
2019-05-12T23:01:43.722Z,46.6
2019-05-12T23:11:50.208Z,46.7
2019-05-12T23:21:58.684Z,46.6
2019-05-12T23:32:12.084Z,46.6
2019-05-12T23:42:18.497Z,46.7
2019-05-12T23:52:24.193Z,46.7
